Scenic, South Dakota
Current Conditions -  °F | °C
As of 10:52 PM on Saturday 22 Nov 2014 (Local Time) from KRAP Reporting Station
Overcast Overcast  
Wind Chill: 28°   Ceiling: 11000
Heat Index: 38°   Visibility: 10mi
Dew Point: 33°   Wind: 18mph
Humidity: 83%   Direction: 350°N
Pressure: 29.5"   Gusts: NA
Location:  43.78°N, 102.56°W
Report Text: KRAP 230552Z AUTO 35016KT 10SM OVC110 03/01 A2950 RMK AO2 PK WND 35031/0456 SLP994 6//// T00330006 10083 20028 53026 PNO $
Loading
Personal Weather Stations






























Interactive Weather Map New forecast layout! Learn more

10-Day Weather Forecast

Advertisements
Track Severe Weather on mobile